Time;durP1;ratioP1;P1;durP2;ratioP2;P2;SDS_P1;SDS_P2;PMS_P1;PMS_P2;Temp;Humidity;BMP_temperature;BMP_pressure;BME280_temperature;BME280_humidity;BME280_pressure;Samples;Min_cycle;Max_cycle;Signal;HPM_P1;HPM_P2
2022/07/30 00:02:15;;;;;;;;;;;;;;;21.00;61.01;101506.59;4950605;28;120214;-82
2022/07/30 00:04:41;;;;;;;;;;;;;;;20.99;61.25;101499.50;4933802;28;121555;-81
2022/07/30 00:07:20;;;;;;;;;;;;;;;20.99;61.18;101499.50;4948051;28;120163;-82
2022/07/30 00:09:45;;;;;;;;;;;;;;;20.98;61.45;101507.13;4933400;28;119962;-81
2022/07/30 00:12:11;;;;;;;;;;;;;;;20.98;61.28;101498.00;4950438;28;119664;-81
2022/07/30 00:14:36;;;;;;;;;;;;;;;20.99;61.39;101500.28;4946554;28;121355;-82
2022/07/30 00:17:03;;;;;;;;;;;;;;;20.99;61.54;101496.72;4955214;28;119641;-82
2022/07/30 00:19:28;;;;;;;;;;;;;;;20.98;61.62;101498.00;4949859;28;120144;-82
2022/07/30 00:21:53;;;;;;;;;;;;;;;20.94;61.89;101495.44;4948713;28;120651;-82
2022/07/30 00:24:20;;;;;;;;;;;;;;;20.91;62.11;101484.53;4947378;28;119725;-82
2022/07/30 00:26:45;;;;;;;;;;;;;;;20.88;62.38;101486.31;4949002;28;120749;-81
2022/07/30 00:29:11;;;;;;;;;;;;;;;20.89;62.42;101489.88;4951680;28;119821;-82
2022/07/30 00:31:37;;;;;;;;;;;;;;;20.88;62.56;101485.56;4947476;28;119790;-82
2022/07/30 00:34:02;;;;;;;;;;;;;;;20.87;62.56;101490.38;4928667;28;122181;-81
2022/07/30 00:36:28;;;;;;;;;;;;;;;20.88;62.85;101480.72;4932425;28;119940;-82
2022/07/30 00:38:53;;;;;;;;;;;;;;;20.87;62.65;101495.19;4951229;28;120185;-82
2022/07/30 00:41:19;;;;;;;;;;;;;;;20.84;62.77;101485.81;4915487;28;119882;-81
2022/07/30 00:43:44;;;;;;;;;;;;;;;20.85;62.87;101476.16;4947661;28;121994;-81
2022/07/30 00:46:10;;;;;;;;;;;;;;;20.88;62.86;101474.41;4949209;28;119875;-81
2022/07/30 00:48:36;;;;;;;;;;;;;;;20.90;62.77;101477.44;4949786;28;121537;-82
2022/07/30 00:51:01;;;;;;;;;;;;;;;20.89;62.71;101471.09;4949591;28;120050;-81
2022/07/30 00:53:27;;;;;;;;;;;;;;;20.91;62.84;101465.03;4931264;28;122958;-81
2022/07/30 00:55:52;;;;;;;;;;;;;;;20.89;63.04;101464.75;4932747;28;119847;-82
2022/07/30 00:58:18;;;;;;;;;;;;;;;20.89;63.17;101461.97;4937361;28;120089;-81
2022/07/30 01:00:44;;;;;;;;;;;;;;;20.89;63.09;101456.41;4948243;28;120128;-82
2022/07/30 01:03:12;;;;;;;;;;;;;;;20.89;63.14;101453.59;4929206;28;121909;-82
2022/07/30 01:05:38;;;;;;;;;;;;;;;20.90;63.28;101449.56;4932270;28;123632;-81
2022/07/30 01:08:03;;;;;;;;;;;;;;;20.90;63.32;101455.91;4932747;28;120214;-81
2022/07/30 01:10:28;;;;;;;;;;;;;;;20.91;63.37;101457.41;4946898;28;119646;-81
2022/07/30 01:12:57;;;;;;;;;;;;;;;20.91;63.63;101457.41;4932942;28;120072;-81
2022/07/30 01:15:24;;;;;;;;;;;;;;;20.90;63.53;101450.31;4930315;28;120227;-82
2022/07/30 01:17:50;;;;;;;;;;;;;;;20.90;63.69;101443.97;4946392;28;120092;-82
2022/07/30 01:20:31;;;;;;;;;;;;;;;20.88;63.76;101443.72;4947007;28;122714;-82
2022/07/30 01:23:03;;;;;;;;;;;;;;;20.83;64.14;101443.22;4925993;28;120397;-82
2022/07/30 01:25:44;;;;;;;;;;;;;;;20.80;64.21;101438.63;4940822;28;120610;-82
2022/07/30 01:28:12;;;;;;;;;;;;;;;20.80;64.50;101437.84;4912802;28;119850;-82
2022/07/30 01:30:39;;;;;;;;;;;;;;;20.78;64.76;101438.38;4927955;28;120016;-82
2022/07/30 01:33:07;;;;;;;;;;;;;;;20.77;64.46;101442.41;4913992;28;123197;-81
2022/07/30 01:35:34;;;;;;;;;;;;;;;20.78;64.51;101446.72;4922555;28;120498;-82
2022/07/30 01:38:13;;;;;;;;;;;;;;;20.79;64.69;101441.91;4945125;28;120000;-81
2022/07/30 01:40:49;;;;;;;;;;;;;;;20.80;64.63;101443.44;4916186;28;122190;-81
2022/07/30 01:43:16;;;;;;;;;;;;;;;20.81;64.69;101448.50;4952361;28;121149;-81
2022/07/30 01:45:42;;;;;;;;;;;;;;;20.83;64.73;101437.63;4929380;28;120076;-81
2022/07/30 01:48:10;;;;;;;;;;;;;;;20.83;64.66;101445.25;4931221;28;119656;-82
2022/07/30 01:50:37;;;;;;;;;;;;;;;20.83;64.66;101440.41;4933710;28;121701;-81
2022/07/30 01:53:04;;;;;;;;;;;;;;;20.83;64.88;101434.84;4940855;28;122858;-81
2022/07/30 01:55:31;;;;;;;;;;;;;;;20.83;64.92;101443.22;4919031;28;120419;-82
2022/07/30 01:57:58;;;;;;;;;;;;;;;20.84;64.74;101444.72;4949466;28;119853;-81
2022/07/30 02:00:27;;;;;;;;;;;;;;;20.86;65.10;101446.25;4948005;28;120008;-82
2022/07/30 02:02:53;;;;;;;;;;;;;;;20.85;64.95;101445.50;4945456;28;120635;-82
2022/07/30 02:05:55;;;;;;;;;;;;;;;20.83;65.11;101442.44;4934281;28;120635;-81
2022/07/30 02:08:26;;;;;;;;;;;;;;;20.81;65.20;101436.59;4932635;28;120404;-82
2022/07/30 02:10:56;;;;;;;;;;;;;;;20.79;65.20;101437.09;4945665;28;120756;-82
2022/07/30 02:13:25;;;;;;;;;;;;;;;20.77;65.50;101436.09;4929176;28;121190;-82
2022/07/30 02:15:53;;;;;;;;;;;;;;;20.75;65.66;101433.78;4930416;28;119730;-82
2022/07/30 02:18:27;;;;;;;;;;;;;;;20.73;65.70;101430.75;4929741;28;121782;-81
2022/07/30 02:20:57;;;;;;;;;;;;;;;20.74;65.69;101428.72;4912940;28;123315;-82
2022/07/30 02:23:24;;;;;;;;;;;;;;;20.74;65.53;101431.50;4916113;28;119978;-82
2022/07/30 02:25:50;;;;;;;;;;;;;;;20.71;65.73;101435.31;4911104;28;121374;-81
2022/07/30 02:28:21;;;;;;;;;;;;;;;20.74;65.79;101432.28;4932951;28;120570;-82
2022/07/30 02:30:52;;;;;;;;;;;;;;;20.75;65.59;101430.25;4936609;28;120041;-82
2022/07/30 02:33:20;;;;;;;;;;;;;;;20.75;65.65;101428.22;4931540;28;123156;-82
2022/07/30 02:35:46;;;;;;;;;;;;;;;20.75;65.72;101421.88;4928142;28;119920;-82
2022/07/30 02:38:13;;;;;;;;;;;;;;;20.71;65.74;101413.78;4946227;28;120373;-83
2022/07/30 02:40:42;;;;;;;;;;;;;;;20.68;65.88;101417.56;4931904;28;122935;-82
2022/07/30 02:43:07;;;;;;;;;;;;;;;20.65;66.27;101407.44;4947273;28;121649;-81
2022/07/30 02:45:35;;;;;;;;;;;;;;;20.64;66.16;101407.94;4932784;28;120204;-82
2022/07/30 02:48:03;;;;;;;;;;;;;;;20.62;66.04;101408.44;4916175;28;123328;-82
2022/07/30 02:50:29;;;;;;;;;;;;;;;20.62;66.32;101396.53;4936789;28;121002;-82
2022/07/30 02:53:00;;;;;;;;;;;;;;;20.60;66.16;101405.41;4934934;28;120247;-82
2022/07/30 02:55:27;;;;;;;;;;;;;;;20.60;66.34;101399.06;4917055;28;120459;-81
2022/07/30 02:57:53;;;;;;;;;;;;;;;20.58;66.23;101402.31;4951975;28;120300;-81
2022/07/30 03:00:20;;;;;;;;;;;;;;;20.56;66.33;101392.94;4915900;28;123174;-81
2022/07/30 03:02:46;;;;;;;;;;;;;;;20.56;66.49;101392.94;4932720;28;119634;-82
2022/07/30 03:05:22;;;;;;;;;;;;;;;20.55;66.57;101392.19;4929897;28;121323;-81
2022/07/30 03:07:48;;;;;;;;;;;;;;;20.56;66.59;101393.69;4948227;28;120317;-81
2022/07/30 03:10:14;;;;;;;;;;;;;;;20.56;66.58;101402.06;4954369;28;119848;-81
2022/07/30 03:12:43;;;;;;;;;;;;;;;20.53;66.63;101386.34;4950814;28;119951;-81
2022/07/30 03:15:36;;;;;;;;;;;;;;;20.53;66.74;101391.94;4938022;28;120162;-81
2022/07/30 03:18:04;;;;;;;;;;;;;;;20.54;66.66;101390.66;4933868;28;119950;-81
2022/07/30 03:20:31;;;;;;;;;;;;;;;20.54;66.69;101396.22;4948197;28;120628;-82
2022/07/30 03:22:58;;;;;;;;;;;;;;;20.56;66.72;101390.16;4934555;28;120101;-81
2022/07/30 03:25:27;;;;;;;;;;;;;;;20.58;66.65;101390.41;4935879;28;119832;-82
2022/07/30 03:27:54;;;;;;;;;;;;;;;20.57;66.73;101391.69;4938503;28;120601;-81
2022/07/30 03:30:21;;;;;;;;;;;;;;;20.59;66.85;101398.28;4932346;28;119805;-82
2022/07/30 03:32:47;;;;;;;;;;;;;;;20.60;66.75;101393.47;4934347;28;120289;-82
2022/07/30 03:35:12;;;;;;;;;;;;;;;20.60;66.63;101385.88;4965762;28;119731;-82
2022/07/30 03:37:39;;;;;;;;;;;;;;;20.61;66.90;101395.75;4947696;28;119966;-82
2022/07/30 03:40:05;;;;;;;;;;;;;;;20.61;66.80;101390.19;4931027;28;121050;-81
2022/07/30 03:42:32;;;;;;;;;;;;;;;20.63;66.78;101404.38;4948179;28;120100;-81
2022/07/30 03:44:59;;;;;;;;;;;;;;;20.64;66.68;101394.75;4948441;28;120058;-82
2022/07/30 03:47:24;;;;;;;;;;;;;;;20.65;66.60;101398.31;4945133;28;124448;-81
2022/07/30 03:49:51;;;;;;;;;;;;;;;20.63;66.63;101393.22;4926460;28;120774;-82
2022/07/30 03:52:40;;;;;;;;;;;;;;;20.64;66.99;101394.75;4934184;28;120091;-82
2022/07/30 03:55:08;;;;;;;;;;;;;;;20.66;66.83;101397.78;4951900;28;120738;-81
2022/07/30 03:57:54;;;;;;;;;;;;;;;20.66;66.59;101394.25;4951282;28;119817;-82
2022/07/30 04:00:25;;;;;;;;;;;;;;;20.65;66.65;101389.94;4946654;28;120477;-82
2022/07/30 04:02:52;;;;;;;;;;;;;;;20.65;66.73;101395.50;4933760;28;119947;-82
2022/07/30 04:05:30;;;;;;;;;;;;;;;20.64;66.79;101382.84;4924785;28;122315;-81
2022/07/30 04:07:59;;;;;;;;;;;;;;;20.63;66.85;101393.22;4914878;28;122976;-82
2022/07/30 04:10:26;;;;;;;;;;;;;;;20.65;66.87;101384.38;4947633;28;119684;-82
2022/07/30 04:13:14;;;;;;;;;;;;;;;20.66;66.59;101386.66;4943521;28;121521;-81
2022/07/30 04:15:46;;;;;;;;;;;;;;;20.64;66.91;101378.03;4929460;28;120866;-81
2022/07/30 04:18:14;;;;;;;;;;;;;;;20.63;66.97;101382.09;4938177;28;120104;-82
2022/07/30 04:20:40;;;;;;;;;;;;;;;20.63;67.00;101373.72;4931241;28;121404;-82
2022/07/30 04:23:07;;;;;;;;;;;;;;;20.64;67.08;101378.03;4901137;28;119782;-81
2022/07/30 04:25:33;;;;;;;;;;;;;;;20.66;66.93;101385.88;4933191;28;122122;-82
2022/07/30 04:27:58;;;;;;;;;;;;;;;20.66;66.99;101380.31;4932288;28;121874;-82
2022/07/30 04:30:24;;;;;;;;;;;;;;;20.67;66.96;101387.41;4914134;28;119805;-81
2022/07/30 04:32:50;;;;;;;;;;;;;;;20.68;66.96;101377.78;4938732;28;120150;-81
2022/07/30 04:35:45;;;;;;;;;;;;;;;20.68;66.96;101372.97;4928611;28;120836;-81
2022/07/30 04:38:21;;;;;;;;;;;;;;;20.70;66.87;101376.00;4929552;28;119752;-82
2022/07/30 04:40:49;;;;;;;;;;;;;;;20.70;67.13;101381.59;4917205;28;121607;-82
2022/07/30 04:43:15;;;;;;;;;;;;;;;20.69;67.20;101385.63;4929185;28;120334;-81
2022/07/30 04:45:41;;;;;;;;;;;;;;;20.70;67.09;101380.81;4929968;28;119880;-81
2022/07/30 04:48:07;;;;;;;;;;;;;;;20.69;67.30;101379.31;4942378;28;120355;-81
2022/07/30 04:50:54;;;;;;;;;;;;;;;20.67;67.42;101374.22;4931088;28;119714;-81
2022/07/30 04:53:20;;;;;;;;;;;;;;;20.65;67.47;101376.75;4922797;28;121595;-81
2022/07/30 04:55:53;;;;;;;;;;;;;;;20.63;67.56;101378.53;4913544;28;123359;-81
2022/07/30 04:58:23;;;;;;;;;;;;;;;20.64;67.59;101383.59;4929633;28;120152;-81
2022/07/30 05:00:50;;;;;;;;;;;;;;;20.65;67.64;101392.72;4921394;28;121548;-81
2022/07/30 05:03:20;;;;;;;;;;;;;;;20.68;67.94;101386.16;4948585;28;120201;-81
2022/07/30 05:05:50;;;;;;;;;;;;;;;20.69;67.73;101391.22;4930293;28;122180;-82
2022/07/30 05:08:16;;;;;;;;;;;;;;;20.70;67.56;101392.72;4947197;28;120428;-81
2022/07/30 05:10:42;;;;;;;;;;;;;;;20.72;67.83;101404.13;4931911;28;120072;-82
2022/07/30 05:13:13;;;;;;;;;;;;;;;20.75;67.65;101397.56;4914204;28;122081;-82
2022/07/30 05:15:39;;;;;;;;;;;;;;;20.75;67.76;101400.34;4930416;28;120767;-81
2022/07/30 05:18:07;;;;;;;;;;;;;;;20.75;67.93;101397.56;4931244;28;119774;-81
2022/07/30 05:20:36;;;;;;;;;;;;;;;20.76;67.67;101393.50;4930986;28;121873;-82
2022/07/30 05:23:18;;;;;;;;;;;;;;;20.76;67.88;101401.09;4937775;28;124314;-82
2022/07/30 05:25:52;;;;;;;;;;;;;;;20.76;67.84;101390.72;4934132;28;121537;-81
2022/07/30 05:28:27;;;;;;;;;;;;;;;20.81;67.83;101389.19;4934360;28;120175;-81
2022/07/30 05:30:53;;;;;;;;;;;;;;;20.83;67.91;101395.03;4945153;28;120467;-81
2022/07/30 05:33:20;;;;;;;;;;;;;;;20.84;67.78;101388.22;4931072;28;120298;-81
2022/07/30 05:35:45;;;;;;;;;;;;;;;20.84;67.87;101391.75;4946211;28;120081;-81
2022/07/30 05:38:12;;;;;;;;;;;;;;;20.87;67.79;101394.78;4931052;28;120126;-82
2022/07/30 05:40:57;;;;;;;;;;;;;;;20.88;67.76;101393.53;4933567;28;122695;-81
2022/07/30 05:43:41;;;;;;;;;;;;;;;20.89;68.03;101395.81;4947772;28;120652;-82
2022/07/30 05:46:07;;;;;;;;;;;;;;;20.92;68.00;101396.81;4953239;28;120531;-81
2022/07/30 05:48:34;;;;;;;;;;;;;;;20.93;67.85;101390.75;4946429;28;120308;-82
2022/07/30 05:51:00;;;;;;;;;;;;;;;20.94;68.06;101388.72;4946331;28;119802;-82
2022/07/30 05:53:26;;;;;;;;;;;;;;;20.95;68.21;101393.03;4941256;28;120339;-81
2022/07/30 05:56:29;;;;;;;;;;;;;;;20.96;68.05;101391.75;4888925;28;120379;-81
2022/07/30 05:59:03;;;;;;;;;;;;;;;20.96;67.89;101395.31;4870155;28;121333;-82
2022/07/30 06:02:05;;;;;;;;;;;;;;;20.99;68.20;101396.31;4909023;28;120379;-82
2022/07/30 06:04:54;;;;;;;;;;;;;;;21.00;67.94;101404.19;4924043;28;120074;-82
2022/07/30 06:07:20;;;;;;;;;;;;;;;21.02;68.12;101395.28;4930298;28;119997;-81
2022/07/30 06:09:46;;;;;;;;;;;;;;;21.05;68.11;101394.28;4950430;28;119678;-81
2022/07/30 06:12:12;;;;;;;;;;;;;;;21.09;67.89;101392.03;4946517;28;119805;-81
2022/07/30 06:14:39;;;;;;;;;;;;;;;21.15;67.86;101398.38;4928356;28;122153;-81
2022/07/30 06:17:05;;;;;;;;;;;;;;;21.18;67.82;101397.34;4922775;28;120764;-82
2022/07/30 06:19:52;;;;;;;;;;;;;;;21.18;67.85;101391.75;4934143;28;120063;-82
2022/07/30 06:22:19;;;;;;;;;;;;;;;21.20;67.84;101400.38;4948468;28;120192;-82
2022/07/30 06:24:47;;;;;;;;;;;;;;;21.23;67.75;101395.81;4949426;28;120149;-81
2022/07/30 06:27:17;;;;;;;;;;;;;;;21.25;67.84;101396.84;4936011;28;120097;-81
2022/07/30 06:29:43;;;;;;;;;;;;;;;21.26;68.23;101395.59;4949544;28;122799;-82
2022/07/30 06:32:09;;;;;;;;;;;;;;;21.26;68.07;101392.03;4918805;28;123170;-82
2022/07/30 06:34:34;;;;;;;;;;;;;;;21.26;68.18;101392.78;4930274;28;120166;-82
2022/07/30 06:37:00;;;;;;;;;;;;;;;21.27;68.04;101391.53;4912400;28;123027;-82
2022/07/30 06:39:26;;;;;;;;;;;;;;;21.26;68.29;101390.00;4920813;28;120458;-82
2022/07/30 06:41:52;;;;;;;;;;;;;;;21.26;68.23;101392.78;4946190;28;121780;-82
2022/07/30 06:44:18;;;;;;;;;;;;;;;21.28;68.26;101390.25;4920504;28;123450;-82
2022/07/30 06:47:25;;;;;;;;;;;;;;;21.27;68.29;101388.72;4917481;28;121301;-82
2022/07/30 06:49:51;;;;;;;;;;;;;;;21.29;68.76;101391.78;4897543;28;121914;-82
2022/07/30 06:52:17;;;;;;;;;;;;;;;21.32;68.41;101390.78;4929552;28;120786;-81
2022/07/30 06:54:48;;;;;;;;;;;;;;;21.34;68.68;101387.47;4953053;28;119964;-81
2022/07/30 06:57:21;;;;;;;;;;;;;;;21.35;68.65;101394.59;4948635;28;121222;-82
2022/07/30 06:59:50;;;;;;;;;;;;;;;21.39;68.39;101383.91;4947147;28;119863;-82
2022/07/30 07:02:20;;;;;;;;;;;;;;;21.39;68.26;101381.13;4949574;28;120178;-81
2022/07/30 07:05:15;;;;;;;;;;;;;;;21.38;68.51;101379.63;4925565;28;120781;-81
2022/07/30 07:07:46;;;;;;;;;;;;;;;21.39;68.52;101381.88;4947201;28;119912;-81
2022/07/30 07:10:14;;;;;;;;;;;;;;;21.42;68.47;101382.91;4933032;28;122360;-82
2022/07/30 07:12:51;;;;;;;;;;;;;;;21.43;68.65;101385.19;4932177;28;122229;-81
2022/07/30 07:15:19;;;;;;;;;;;;;;;21.50;68.24;101385.94;4916543;28;120305;-81
2022/07/30 07:17:45;;;;;;;;;;;;;;;21.55;68.25;101387.97;4912780;28;120396;-81
2022/07/30 07:20:42;;;;;;;;;;;;;;;21.63;68.18;101383.38;4932572;28;120069;-82
2022/07/30 07:23:08;;;;;;;;;;;;;;;21.67;67.78;101378.28;4928739;28;120431;-82
2022/07/30 07:25:34;;;;;;;;;;;;;;;21.69;67.63;101389.69;4931267;28;124067;-82
2022/07/30 07:27:59;;;;;;;;;;;;;;;21.70;67.99;101385.63;4948559;28;120639;-82
2022/07/30 07:30:25;;;;;;;;;;;;;;;21.72;67.67;101385.88;4951257;28;120364;-81
2022/07/30 07:33:11;;;;;;;;;;;;;;;21.75;67.84;101382.06;4910947;28;121622;-82
2022/07/30 07:35:37;;;;;;;;;;;;;;;21.76;67.65;101383.59;4930732;28;120112;-82
2022/07/30 07:38:02;;;;;;;;;;;;;;;21.80;67.57;101388.94;4935213;28;123032;-81
2022/07/30 07:40:50;;;;;;;;;;;;;;;21.86;67.77;101393.22;4917428;28;120388;-82
2022/07/30 07:43:16;;;;;;;;;;;;;;;21.92;67.35;101380.00;4933307;28;122805;-81
2022/07/30 07:45:42;;;;;;;;;;;;;;;21.98;67.60;101383.53;4934209;28;121098;-82
2022/07/30 07:48:08;;;;;;;;;;;;;;;22.04;67.24;101391.94;4915509;28;120535;-82
2022/07/30 07:50:52;;;;;;;;;;;;;;;22.09;67.29;101382.00;4961528;28;123334;-82
2022/07/30 07:53:49;;;;;;;;;;;;;;;22.14;67.05;101384.75;4863472;28;121805;-82
2022/07/30 07:56:15;;;;;;;;;;;;;;;22.17;67.19;101394.16;4841197;28;120931;-82
2022/07/30 07:58:41;;;;;;;;;;;;;;;22.19;66.35;101383.97;4840212;28;122480;-82
2022/07/30 08:01:09;;;;;;;;;;;;;;;22.24;66.66;101391.59;4857714;28;123106;-82
2022/07/30 08:03:57;;;;;;;;;;;;;;;22.29;66.19;101387.25;4852231;28;122986;-82
2022/07/30 08:06:46;;;;;;;;;;;;;;;22.31;65.93;101385.47;4862983;28;120938;-81
2022/07/30 08:09:30;;;;;;;;;;;;;;;22.35;66.14;101393.56;4867217;28;121199;-82
2022/07/30 08:12:08;;;;;;;;;;;;;;;22.40;65.50;101392.78;4856075;28;121302;-82
2022/07/30 08:14:52;;;;;;;;;;;;;;;22.46;65.78;101399.09;4866575;28;121329;-81
2022/07/30 08:17:46;;;;;;;;;;;;;;;22.52;65.39;101388.66;4853709;28;120624;-81
2022/07/30 08:20:17;;;;;;;;;;;;;;;22.55;65.78;101378.47;4846219;28;122838;-81
2022/07/30 08:22:46;;;;;;;;;;;;;;;22.58;65.56;101383.03;4823781;28;124379;-81
2022/07/30 08:25:12;;;;;;;;;;;;;;;22.61;64.94;101385.53;4861744;28;122814;-81
2022/07/30 08:27:37;;;;;;;;;;;;;;;22.64;65.00;101386.53;4850145;28;124186;-81
2022/07/30 08:30:07;;;;;;;;;;;;;;;22.67;65.28;101385.50;4932909;28;121035;-81
2022/07/30 08:33:04;;;;;;;;;;;;;;;22.71;65.10;101396.41;4877101;28;121210;-81
2022/07/30 08:35:30;;;;;;;;;;;;;;;22.74;64.65;101395.38;4857993;28;124282;-81
2022/07/30 08:37:56;;;;;;;;;;;;;;;22.76;64.49;101396.38;4857859;28;120850;-81
2022/07/30 08:40:24;;;;;;;;;;;;;;;22.80;64.54;101398.91;4853337;28;122897;-81
2022/07/30 08:42:57;;;;;;;;;;;;;;;22.82;64.94;101404.75;4865309;28;122535;-81
2022/07/30 08:45:23;;;;;;;;;;;;;;;22.84;64.27;101405.00;4868795;28;121159;-81
2022/07/30 08:47:51;;;;;;;;;;;;;;;22.87;63.97;101420.75;4878252;28;121266;-81
2022/07/30 08:50:25;;;;;;;;;;;;;;;22.91;64.54;101421.97;4871979;28;123508;-81
2022/07/30 08:53:14;;;;;;;;;;;;;;;22.96;64.20;101424.00;4892391;28;122130;-81
2022/07/30 08:55:40;;;;;;;;;;;;;;;23.02;63.93;101432.34;4878640;28;122294;-81
2022/07/30 08:58:22;;;;;;;;;;;;;;;23.08;63.95;101413.47;4882147;28;121560;-81
2022/07/30 09:00:48;;;;;;;;;;;;;;;23.16;63.93;101406.03;4897434;28;121883;-81
2022/07/30 09:03:14;;;;;;;;;;;;;;;23.17;63.48;101404.75;4859319;28;124496;-80
2022/07/30 09:05:39;;;;;;;;;;;;;;;23.21;63.83;101404.47;4864786;28;121915;-80
2022/07/30 09:08:05;;;;;;;;;;;;;;;23.27;64.01;101408.75;4908378;28;121657;-80
2022/07/30 09:10:31;;;;;;;;;;;;;;;23.35;63.10;101402.56;4943179;28;125561;-81
2022/07/30 09:12:56;;;;;;;;;;;;;;;23.35;62.98;101396.97;4943869;28;121736;-81
2022/07/30 09:15:24;;;;;;;;;;;;;;;23.32;63.77;101398.00;4942950;28;122070;-81
2022/07/30 09:17:49;;;;;;;;;;;;;;;23.26;62.95;101398.81;4958761;28;122136;-81
2022/07/30 09:20:16;;;;;;;;;;;;;;;23.21;64.02;101384.88;4943448;28;123251;-81
2022/07/30 09:22:42;;;;;;;;;;;;;;;23.13;63.92;101381.13;4943258;28;122145;-81
2022/07/30 09:25:33;;;;;;;;;;;;;;;23.06;64.37;101376.09;4913824;28;121797;-81
2022/07/30 09:28:29;;;;;;;;;;;;;;;22.96;64.21;101367.28;4952167;28;123621;-81
2022/07/30 09:31:13;;;;;;;;;;;;;;;22.86;64.35;101363.28;4942855;28;124931;-81
2022/07/30 09:34:24;;;;;;;;;;;;;;;22.80;65.15;101371.69;4956994;28;123723;-81
2022/07/30 09:37:00;;;;;;;;;;;;;;;22.80;64.88;101374.50;4954926;28;123274;-81
2022/07/30 09:39:31;;;;;;;;;;;;;;;22.85;64.97;101375.75;4946968;28;121451;-82
2022/07/30 09:42:27;;;;;;;;;;;;;;;22.94;64.72;101383.81;4928765;28;121832;-82
2022/07/30 09:45:06;;;;;;;;;;;;;;;23.04;65.05;101381.47;4937819;28;122242;-81
2022/07/30 09:47:32;;;;;;;;;;;;;;;23.09;64.17;101383.44;4938505;28;121995;-81
2022/07/30 09:50:01;;;;;;;;;;;;;;;23.15;64.76;101392.56;4943662;28;123423;-81
2022/07/30 09:52:30;;;;;;;;;;;;;;;23.21;64.06;101394.03;4941714;28;123298;-81
2022/07/30 09:54:55;;;;;;;;;;;;;;;23.30;64.19;101386.59;4930744;28;122435;-82
2022/07/30 09:57:23;;;;;;;;;;;;;;;23.33;63.80;101388.34;4941151;28;123201;-81
2022/07/30 09:59:48;;;;;;;;;;;;;;;23.38;63.77;101388.28;4942484;28;122588;-82
2022/07/30 10:02:32;;;;;;;;;;;;;;;23.42;64.28;101390.78;4940532;28;122468;-81
2022/07/30 10:05:20;;;;;;;;;;;;;;;23.48;63.66;101395.06;4941819;28;125125;-82
2022/07/30 10:07:56;;;;;;;;;;;;;;;23.52;62.97;101392.72;4939927;28;122834;-83
2022/07/30 10:10:23;;;;;;;;;;;;;;;23.56;63.37;101389.66;4929007;28;122046;-82
2022/07/30 10:12:50;;;;;;;;;;;;;;;23.61;62.92;101396.50;4937099;28;125679;-81
2022/07/30 10:15:18;;;;;;;;;;;;;;;23.64;62.75;101390.59;4951499;28;124007;-81
2022/07/30 10:17:45;;;;;;;;;;;;;;;23.67;62.23;101389.56;4934902;28;123952;-82
2022/07/30 10:20:44;;;;;;;;;;;;;;;23.68;62.32;101395.94;4882374;28;123662;-82
2022/07/30 10:23:36;;;;;;;;;;;;;;;23.67;62.45;101388.81;4936833;28;122406;-82
2022/07/30 10:26:32;;;;;;;;;;;;;;;23.61;62.10;101382.50;4932214;28;122631;-82
2022/07/30 10:29:37;;;;;;;;;;;;;;;23.73;62.36;101393.06;4951316;28;122078;-81
2022/07/30 10:32:03;;;;;;;;;;;;;;;23.88;62.68;101398.97;4952289;28;122327;-81
2022/07/30 10:34:28;;;;;;;;;;;;;;;24.07;61.82;101409.47;4950973;28;124112;-81
2022/07/30 10:36:57;;;;;;;;;;;;;;;24.25;61.88;101405.19;4954665;28;121973;-82
2022/07/30 10:39:30;;;;;;;;;;;;;;;24.45;61.30;101405.47;4953418;28;122299;-82
2022/07/30 10:42:06;;;;;;;;;;;;;;;24.58;61.02;101401.94;4960849;28;122479;-82
2022/07/30 10:44:38;;;;;;;;;;;;;;;24.79;61.15;101410.59;4959040;28;124599;-81
2022/07/30 10:47:07;;;;;;;;;;;;;;;25.04;60.48;101409.19;4954468;28;123768;-81
2022/07/30 10:49:33;;;;;;;;;;;;;;;25.16;59.66;101398.56;4958798;28;122826;-80
2022/07/30 10:51:59;;;;;;;;;;;;;;;25.28;59.32;101399.09;4940248;28;122279;-81
2022/07/30 10:54:41;;;;;;;;;;;;;;;25.37;59.47;101395.91;4924755;28;124902;-81
2022/07/30 10:57:20;;;;;;;;;;;;;;;25.46;58.26;101398.28;4955818;28;121990;-80
2022/07/30 10:59:48;;;;;;;;;;;;;;;25.56;58.43;101393.03;4958755;28;121996;-82
2022/07/30 11:02:17;;;;;;;;;;;;;;;25.60;57.91;101394.22;4922513;28;125145;-82
2022/07/30 11:04:43;;;;;;;;;;;;;;;25.68;57.78;101388.72;4965041;28;122464;-82
2022/07/30 11:07:21;;;;;;;;;;;;;;;25.81;57.65;101390.78;4942848;28;125091;-82
2022/07/30 11:09:53;;;;;;;;;;;;;;;25.95;57.21;101381.03;4929673;28;122347;-82
2022/07/30 11:12:51;;;;;;;;;;;;;;;26.00;56.55;101385.78;4960509;28;124575;-81
2022/07/30 11:15:16;;;;;;;;;;;;;;;26.01;55.75;101379.63;4941528;28;125766;-82
2022/07/30 11:17:57;;;;;;;;;;;;;;;25.99;55.86;101378.66;4961092;28;123480;-81
2022/07/30 11:20:23;;;;;;;;;;;;;;;25.96;55.71;101385.34;4961435;28;124874;-82
2022/07/30 11:22:49;;;;;;;;;;;;;;;25.97;55.47;101376.38;4926395;28;125597;-81
2022/07/30 11:25:17;;;;;;;;;;;;;;;26.12;56.05;101384.25;4960338;28;122595;-81
2022/07/30 11:27:47;;;;;;;;;;;;;;;26.33;54.46;101377.94;4947756;28;122302;-82
2022/07/30 11:30:45;;;;;;;;;;;;;;;26.58;54.82;101373.56;4952626;28;122394;-82
2022/07/30 11:33:13;;;;;;;;;;;;;;;26.70;53.48;101368.44;4941764;28;124731;-82
2022/07/30 11:35:40;;;;;;;;;;;;;;;26.75;52.71;101370.38;4960052;28;125339;-82
2022/07/30 11:38:06;;;;;;;;;;;;;;;26.77;51.46;101368.53;4960688;28;122236;-82
2022/07/30 11:40:57;;;;;;;;;;;;;;;26.75;51.78;101365.50;4959046;28;123818;-82
2022/07/30 11:43:24;;;;;;;;;;;;;;;26.70;51.00;101366.38;4960291;28;122593;-81
2022/07/30 11:45:49;;;;;;;;;;;;;;;26.68;51.19;101365.41;4954246;28;122447;-82
2022/07/30 11:48:17;;;;;;;;;;;;;;;26.72;51.59;101366.56;4964251;28;126236;-82
2022/07/30 11:50:43;;;;;;;;;;;;;;;26.83;51.56;101363.50;4961895;28;122531;-81
2022/07/30 11:53:14;;;;;;;;;;;;;;;26.93;51.09;101364.53;4957090;28;122860;-81
2022/07/30 11:55:41;;;;;;;;;;;;;;;26.90;50.29;101370.50;4959656;28;125292;-82
2022/07/30 11:58:08;;;;;;;;;;;;;;;26.85;50.06;101362.94;4927539;28;122483;-82
2022/07/30 12:00:38;;;;;;;;;;;;;;;26.76;50.24;101369.06;4960664;28;122548;-82
2022/07/30 12:03:14;;;;;;;;;;;;;;;26.67;50.63;101361.84;4958591;28;125202;-83
2022/07/30 12:05:40;;;;;;;;;;;;;;;26.59;50.60;101373.03;4961848;28;122204;-82
2022/07/30 12:08:06;;;;;;;;;;;;;;;26.58;51.02;101371.50;4960773;28;124251;-82
2022/07/30 12:10:34;;;;;;;;;;;;;;;26.62;50.65;101359.91;4963438;28;127921;-82
2022/07/30 12:13:09;;;;;;;;;;;;;;;26.67;50.42;101375.16;4958991;28;122320;-82
2022/07/30 12:15:36;;;;;;;;;;;;;;;26.74;50.42;101366.81;4942331;28;122701;-82
2022/07/30 12:18:01;;;;;;;;;;;;;;;26.81;50.42;101366.13;4928779;28;122270;-82
2022/07/30 12:20:27;;;;;;;;;;;;;;;26.93;50.11;101375.03;4960555;28;122081;-82
2022/07/30 12:22:53;;;;;;;;;;;;;;;27.03;49.71;101367.66;4965979;28;123291;-82
2022/07/30 12:25:19;;;;;;;;;;;;;;;27.15;49.53;101371.69;4962091;28;124130;-81
2022/07/30 12:27:48;;;;;;;;;;;;;;;27.31;49.45;101361.31;4953196;28;122269;-82
2022/07/30 12:30:15;;;;;;;;;;;;;;;27.45;49.00;101373.25;4948464;28;125476;-82
2022/07/30 12:32:44;;;;;;;;;;;;;;;27.52;49.08;101370.47;4951592;28;122446;-82
2022/07/30 12:35:10;;;;;;;;;;;;;;;27.53;49.01;101363.53;4946567;28;122915;-82
2022/07/30 12:37:36;;;;;;;;;;;;;;;27.53;49.04;101369.16;4944390;28;122543;-82
2022/07/30 12:40:15;;;;;;;;;;;;;;;27.56;48.72;101360.91;4933218;28;125274;-82
2022/07/30 12:43:07;;;;;;;;;;;;;;;27.62;48.34;101358.69;4965255;28;125650;-82
2022/07/30 12:45:33;;;;;;;;;;;;;;;27.65;48.52;101357.59;4925762;28;123131;-82
2022/07/30 12:47:58;;;;;;;;;;;;;;;27.69;47.74;101355.19;4959357;28;124364;-82
2022/07/30 12:50:25;;;;;;;;;;;;;;;27.64;47.31;101361.72;4944014;28;122508;-81